Time;durP1;ratioP1;P1;durP2;ratioP2;P2;SDS_P1;SDS_P2;PMS_P1;PMS_P2;Temp;Humidity;BMP_temperature;BMP_pressure;BME280_temperature;BME280_humidity;BME280_pressure;Samples;Min_cycle;Max_cycle;Signal;HPM_P1;HPM_P2
2023/07/04 00:00:37;;;;;;;0.20;0.20;;;11.80;99.90;;;;;;5067302;28;20184;-81
2023/07/04 00:03:02;;;;;;;0.20;0.20;;;11.80;99.90;;;;;;5068138;28;20177;-85
2023/07/04 00:05:28;;;;;;;0.10;0.10;;;11.80;99.90;;;;;;5088275;28;20192;-86
2023/07/04 00:07:53;;;;;;;0.20;0.20;;;11.80;99.90;;;;;;5088928;28;20174;-81
2023/07/04 00:10:20;;;;;;;0.20;0.20;;;11.80;99.90;;;;;;5070141;28;21099;-85
2023/07/04 00:12:46;;;;;;;0.20;0.20;;;11.80;99.90;;;;;;5082109;28;20177;-80
2023/07/04 00:15:13;;;;;;;0.20;0.20;;;11.80;99.90;;;;;;5088641;28;21024;-81
2023/07/04 00:17:39;;;;;;;0.20;0.20;;;11.80;99.90;;;;;;5089617;28;20416;-85
2023/07/04 00:20:05;;;;;;;0.20;0.20;;;11.80;99.90;;;;;;5069364;28;20455;-86
2023/07/04 00:22:33;;;;;;;0.20;0.20;;;11.80;99.90;;;;;;5085067;28;20181;-84
2023/07/04 00:24:59;;;;;;;0.20;0.20;;;11.80;99.90;;;;;;5090392;28;20502;-84
2023/07/04 00:27:25;;;;;;;0.20;0.20;;;11.80;99.90;;;;;;5086940;28;20534;-85
2023/07/04 00:29:50;;;;;;;0.20;0.20;;;11.80;99.90;;;;;;5070867;28;20663;-83
2023/07/04 00:32:16;;;;;;;0.20;0.20;;;11.80;99.90;;;;;;5078977;28;20199;-84
2023/07/04 00:34:45;;;;;;;0.20;0.20;;;11.80;99.90;;;;;;5083656;28;20350;-81
2023/07/04 00:37:11;;;;;;;0.20;0.20;;;11.80;99.90;;;;;;5087494;28;20452;-85
2023/07/04 00:39:37;;;;;;;0.20;0.20;;;11.80;99.90;;;;;;5091102;28;20494;-83
2023/07/04 00:42:07;;;;;;;0.20;0.20;;;11.80;99.90;;;;;;5086707;28;20470;-88
2023/07/04 00:44:37;;;;;;;0.20;0.20;;;11.80;99.90;;;;;;5089290;28;20451;-86
2023/07/04 00:47:10;;;;;;;0.20;0.20;;;11.70;99.90;;;;;;5088901;28;20514;-83
2023/07/04 00:49:43;;;;;;;0.20;0.20;;;11.80;99.90;;;;;;5071179;28;20474;-88
2023/07/04 00:52:26;;;;;;;0.20;0.20;;;11.70;99.90;;;;;;5060273;28;21171;-91
2023/07/04 00:54:57;;;;;;;0.20;0.20;;;11.70;99.90;;;;;;5070322;28;20441;-86
2023/07/04 00:57:26;;;;;;;0.20;0.20;;;11.60;99.90;;;;;;5061229;28;20439;-89
2023/07/04 00:59:58;;;;;;;0.20;0.20;;;11.70;99.90;;;;;;5089338;28;20447;-86
2023/07/04 01:02:28;;;;;;;0.20;0.20;;;11.70;99.90;;;;;;5087083;28;20443;-83
2023/07/04 01:04:54;;;;;;;0.20;0.20;;;11.60;99.90;;;;;;5070520;28;20444;-92
2023/07/04 01:07:35;;;;;;;0.20;0.20;;;11.70;99.90;;;;;;5087511;28;20443;-81
2023/07/04 01:10:10;;;;;;;0.20;0.20;;;11.70;99.90;;;;;;5089293;28;20231;-84
2023/07/04 01:12:36;;;;;;;0.20;0.20;;;11.70;99.90;;;;;;5090124;28;20419;-85
2023/07/04 01:15:02;;;;;;;0.20;0.20;;;11.70;99.90;;;;;;5089122;28;20447;-86
2023/07/04 01:17:29;;;;;;;0.20;0.20;;;11.70;99.90;;;;;;5089129;28;20491;-87
2023/07/04 01:19:55;;;;;;;0.20;0.20;;;11.70;99.90;;;;;;5080901;28;20258;-86
2023/07/04 01:22:40;;;;;;;0.20;0.20;;;11.70;99.90;;;;;;5085013;28;20985;-83
2023/07/04 01:25:20;;;;;;;0.20;0.20;;;11.60;99.90;;;;;;5071021;28;20451;-83
2023/07/04 01:27:48;;;;;;;0.20;0.20;;;11.60;99.90;;;;;;5070654;28;20832;-86
2023/07/04 01:30:16;;;;;;;0.20;0.20;;;11.60;99.90;;;;;;5086191;28;20486;-88
2023/07/04 01:32:42;;;;;;;0.20;0.20;;;11.60;99.90;;;;;;5070272;28;20935;-84
2023/07/04 01:35:13;;;;;;;0.20;0.20;;;11.50;99.90;;;;;;5089963;28;20438;-91
2023/07/04 01:37:38;;;;;;;0.20;0.20;;;11.50;99.90;;;;;;5086761;28;20450;-86
2023/07/04 01:40:07;;;;;;;0.20;0.20;;;11.50;99.90;;;;;;5068226;28;20490;-85
2023/07/04 01:42:36;;;;;;;0.20;0.20;;;11.60;99.90;;;;;;5088908;28;20221;-86
2023/07/04 01:45:04;;;;;;;0.20;0.20;;;11.60;99.90;;;;;;5080367;28;21234;-85
2023/07/04 01:47:32;;;;;;;0.20;0.20;;;11.60;99.90;;;;;;5094221;28;20470;-90
2023/07/04 01:50:01;;;;;;;0.20;0.20;;;11.60;99.90;;;;;;5083874;28;20865;-85
2023/07/04 01:52:28;;;;;;;0.20;0.20;;;11.60;99.90;;;;;;5073800;28;20913;-90
2023/07/04 01:54:55;;;;;;;0.20;0.20;;;11.60;99.90;;;;;;5077591;28;20446;-91
2023/07/04 01:57:20;;;;;;;0.20;0.20;;;11.60;99.90;;;;;;5092980;28;20473;-88
2023/07/04 01:59:46;;;;;;;0.20;0.20;;;11.60;99.90;;;;;;5074538;28;20824;-85
2023/07/04 02:02:11;;;;;;;0.20;0.20;;;11.60;99.90;;;;;;5074736;28;20199;-86
2023/07/04 02:04:37;;;;;;;0.20;0.20;;;11.60;99.90;;;;;;5092933;28;20223;-90
2023/07/04 02:07:03;;;;;;;0.20;0.20;;;11.60;99.90;;;;;;5090711;28;20185;-92
2023/07/04 02:09:29;;;;;;;0.20;0.20;;;11.60;99.90;;;;;;5090504;28;20763;-85
2023/07/04 02:11:54;;;;;;;0.20;0.20;;;11.60;99.90;;;;;;5092429;28;20249;-85
2023/07/04 02:14:20;;;;;;;0.20;0.20;;;11.60;99.90;;;;;;5092775;28;20431;-83
2023/07/04 02:16:45;;;;;;;0.20;0.20;;;11.60;99.90;;;;;;5073726;28;20215;-83
2023/07/04 02:19:11;;;;;;;0.20;0.20;;;11.60;99.90;;;;;;5072996;28;20182;-83
2023/07/04 02:21:37;;;;;;;0.20;0.20;;;11.60;99.90;;;;;;5091323;28;20250;-89
2023/07/04 02:24:03;;;;;;;0.20;0.20;;;11.60;99.90;;;;;;5071908;28;20826;-84
2023/07/04 02:26:32;;;;;;;0.20;0.20;;;11.60;99.90;;;;;;5093308;28;20193;-81
2023/07/04 02:28:57;;;;;;;0.20;0.20;;;11.60;99.90;;;;;;5089151;28;20492;-83
2023/07/04 02:31:23;;;;;;;0.20;0.20;;;11.50;99.90;;;;;;5091028;28;20863;-84
2023/07/04 02:33:49;;;;;;;0.20;0.20;;;11.50;99.90;;;;;;5090047;28;20946;-84
2023/07/04 02:36:15;;;;;;;0.20;0.20;;;11.50;99.90;;;;;;5088319;28;20454;-82
2023/07/04 02:38:41;;;;;;;0.20;0.20;;;11.50;99.90;;;;;;5074944;28;20228;-84
2023/07/04 02:41:08;;;;;;;0.20;0.20;;;11.50;99.90;;;;;;5092360;28;20449;-91
2023/07/04 02:43:35;;;;;;;0.20;0.20;;;11.50;99.90;;;;;;5092882;28;20227;-85
2023/07/04 02:46:01;;;;;;;0.20;0.20;;;11.50;99.90;;;;;;5073875;28;20450;-85
2023/07/04 02:48:27;;;;;;;0.20;0.20;;;11.50;99.90;;;;;;5086337;28;20458;-82
2023/07/04 02:50:52;;;;;;;0.20;0.20;;;11.50;99.90;;;;;;5089152;28;20503;-81
2023/07/04 02:53:21;;;;;;;0.20;0.20;;;11.50;99.90;;;;;;5089057;28;20192;-83
2023/07/04 02:55:51;;;;;;;0.20;0.20;;;11.50;99.90;;;;;;5075502;28;20174;-83
2023/07/04 02:58:16;;;;;;;0.20;0.20;;;11.40;99.90;;;;;;5074339;28;20412;-82
2023/07/04 03:00:43;;;;;;;0.20;0.20;;;11.40;99.90;;;;;;5073355;28;20447;-83
2023/07/04 03:03:09;;;;;;;0.20;0.20;;;11.40;99.90;;;;;;5088559;28;20620;-85
2023/07/04 03:05:35;;;;;;;0.20;0.20;;;11.40;99.90;;;;;;5087303;28;20458;-84
2023/07/04 03:08:02;;;;;;;0.20;0.20;;;11.40;99.90;;;;;;5083909;28;20853;-85
2023/07/04 03:10:28;;;;;;;0.20;0.20;;;11.40;99.90;;;;;;5091472;28;21100;-85
2023/07/04 03:12:53;;;;;;;0.20;0.20;;;11.40;99.90;;;;;;5073409;28;20514;-86
2023/07/04 03:15:19;;;;;;;0.20;0.20;;;11.40;99.90;;;;;;5090387;28;20908;-88
2023/07/04 03:17:44;;;;;;;0.20;0.20;;;11.40;99.90;;;;;;5071942;28;20273;-89
2023/07/04 03:20:11;;;;;;;0.20;0.20;;;11.40;99.90;;;;;;5092746;28;20197;-87
2023/07/04 03:22:39;;;;;;;0.20;0.20;;;11.40;99.90;;;;;;5073410;28;20185;-86
2023/07/04 03:25:04;;;;;;;0.20;0.20;;;11.40;99.90;;;;;;5089718;28;20454;-88
2023/07/04 03:27:30;;;;;;;0.20;0.20;;;11.40;99.90;;;;;;5094737;28;20408;-92
2023/07/04 03:29:56;;;;;;;0.20;0.20;;;11.40;99.90;;;;;;5091436;28;20221;-91
2023/07/04 03:32:21;;;;;;;0.20;0.20;;;11.40;99.90;;;;;;5077846;28;20190;-86
2023/07/04 03:34:47;;;;;;;0.20;0.20;;;11.40;99.90;;;;;;5093072;28;20192;-89
2023/07/04 03:37:13;;;;;;;0.20;0.20;;;11.40;99.90;;;;;;5075035;28;20208;-84
2023/07/04 03:39:38;;;;;;;0.20;0.20;;;11.50;99.90;;;;;;5091919;28;20248;-94
2023/07/04 03:42:05;;;;;;;0.20;0.20;;;11.40;99.90;;;;;;5074472;28;20270;-94
2023/07/04 03:44:30;;;;;;;0.20;0.20;;;11.50;99.90;;;;;;5058490;28;20299;-92
2023/07/04 03:46:56;;;;;;;0.20;0.20;;;11.50;99.90;;;;;;5088949;28;20529;-90
2023/07/04 03:49:21;;;;;;;0.20;0.20;;;11.60;99.90;;;;;;5069361;28;20200;-86
2023/07/04 03:51:47;;;;;;;0.20;0.20;;;11.60;99.90;;;;;;5072681;28;20655;-87
2023/07/04 03:54:12;;;;;;;0.17;0.17;;;11.60;99.90;;;;;;5085051;28;20220;-88
2023/07/04 03:56:38;;;;;;;0.20;0.20;;;11.70;99.90;;;;;;5097232;28;20184;-85
2023/07/04 03:59:03;;;;;;;0.20;0.20;;;11.70;99.90;;;;;;5071090;28;20177;-85
2023/07/04 04:01:29;;;;;;;0.20;0.20;;;11.70;99.90;;;;;;5073577;28;20196;-85
2023/07/04 04:03:54;;;;;;;0.20;0.20;;;11.70;99.90;;;;;;5081507;28;20675;-95
2023/07/04 04:06:20;;;;;;;0.20;0.20;;;11.70;99.90;;;;;;5091351;28;20283;-92
2023/07/04 04:08:46;;;;;;;0.20;0.20;;;11.70;99.90;;;;;;5093305;28;20181;-89
2023/07/04 04:11:12;;;;;;;0.20;0.20;;;11.70;99.90;;;;;;5085851;28;20479;-91
2023/07/04 04:13:37;;;;;;;0.10;0.10;;;11.80;99.90;;;;;;5073129;28;20687;-89
2023/07/04 04:16:03;;;;;;;0.20;0.20;;;11.80;99.90;;;;;;5090834;28;20235;-92
2023/07/04 04:18:29;;;;;;;0.20;0.20;;;11.80;99.90;;;;;;5084520;28;20227;-89
2023/07/04 04:20:54;;;;;;;0.20;0.20;;;11.90;99.90;;;;;;5078581;28;20481;-92
2023/07/04 04:23:21;;;;;;;0.20;0.20;;;11.90;99.90;;;;;;5089733;28;20199;-94
2023/07/04 04:25:47;;;;;;;0.20;0.20;;;11.90;99.90;;;;;;5088836;28;20185;-92
2023/07/04 04:28:13;;;;;;;0.17;0.17;;;11.90;99.90;;;;;;5084904;28;20496;-87
2023/07/04 04:30:40;;;;;;;0.10;0.10;;;11.90;99.90;;;;;;5069648;28;20793;-92
2023/07/04 04:33:05;;;;;;;0.10;0.10;;;11.90;99.90;;;;;;5087238;28;20436;-89
2023/07/04 04:35:31;;;;;;;0.10;0.10;;;12.00;99.90;;;;;;5069646;28;20481;-88
2023/07/04 04:37:57;;;;;;;0.20;0.20;;;12.00;99.90;;;;;;5064122;28;20192;-85
2023/07/04 04:40:23;;;;;;;0.10;0.10;;;12.00;99.90;;;;;;5087102;28;20238;-89
2023/07/04 04:42:53;;;;;;;0.20;0.20;;;12.10;99.90;;;;;;5073158;28;20861;-90
2023/07/04 04:45:20;;;;;;;0.20;0.20;;;12.10;99.90;;;;;;5089531;28;20451;-88
2023/07/04 04:47:52;;;;;;;0.20;0.20;;;12.20;99.90;;;;;;5088790;28;20469;-92
2023/07/04 04:50:30;;;;;;;0.10;0.10;;;12.30;99.90;;;;;;5074259;28;20471;-88
2023/07/04 04:52:57;;;;;;;0.10;0.10;;;12.30;99.90;;;;;;5075918;28;20418;-85
2023/07/04 04:55:23;;;;;;;0.20;0.20;;;12.40;99.90;;;;;;5091529;28;20447;-94
2023/07/04 04:57:48;;;;;;;0.20;0.20;;;12.30;99.90;;;;;;5089136;28;20972;-92
2023/07/04 05:00:16;;;;;;;0.20;0.20;;;12.40;99.90;;;;;;5088244;28;20534;-93
2023/07/04 05:02:42;;;;;;;0.20;0.20;;;12.40;99.90;;;;;;5066591;28;20266;-89
2023/07/04 05:05:08;;;;;;;0.20;0.20;;;12.50;99.90;;;;;;5098273;28;20491;-91
2023/07/04 05:07:34;;;;;;;0.13;0.13;;;12.60;99.90;;;;;;5101758;28;20823;-89
2023/07/04 05:10:02;;;;;;;0.20;0.20;;;12.60;99.90;;;;;;5087886;28;20483;-88
2023/07/04 05:12:27;;;;;;;0.10;0.10;;;12.70;99.90;;;;;;5079686;28;20173;-92
2023/07/04 05:14:53;;;;;;;0.20;0.20;;;12.80;99.90;;;;;;5068788;28;20451;-88
2023/07/04 05:17:18;;;;;;;0.10;0.10;;;12.80;99.90;;;;;;5072992;28;20180;-87
2023/07/04 05:19:48;;;;;;;0.20;0.20;;;12.80;99.90;;;;;;5087191;28;20450;-88
2023/07/04 05:22:14;;;;;;;0.10;0.10;;;12.80;99.90;;;;;;5071781;28;20702;-88
2023/07/04 05:24:39;;;;;;;0.10;0.10;;;12.70;99.90;;;;;;5088410;28;20451;-86
2023/07/04 05:27:05;;;;;;;0.20;0.20;;;12.70;99.90;;;;;;5097020;28;20234;-88
2023/07/04 05:29:30;;;;;;;0.10;0.10;;;12.70;99.90;;;;;;5080880;28;20221;-88
2023/07/04 05:31:56;;;;;;;0.20;0.20;;;12.80;99.90;;;;;;5086123;28;20276;-81
2023/07/04 05:34:21;;;;;;;0.20;0.20;;;12.90;99.90;;;;;;5071919;28;20223;-91
2023/07/04 05:36:47;;;;;;;0.20;0.20;;;13.00;99.90;;;;;;5074631;28;20284;-90
2023/07/04 05:39:12;;;;;;;0.10;0.10;;;13.10;99.90;;;;;;5082922;28;20267;-93
2023/07/04 05:41:39;;;;;;;0.10;0.10;;;13.20;99.90;;;;;;5071956;28;20184;-90
2023/07/04 05:44:07;;;;;;;0.10;0.10;;;13.30;99.90;;;;;;5072820;28;20239;-96
2023/07/04 05:46:33;;;;;;;0.10;0.10;;;13.50;99.90;;;;;;5092809;28;20433;-93
2023/07/04 05:48:59;;;;;;;0.10;0.10;;;13.50;99.90;;;;;;5081689;28;20458;-90
2023/07/04 05:51:25;;;;;;;0.20;0.20;;;13.30;99.90;;;;;;5089413;28;20308;-87
2023/07/04 05:53:52;;;;;;;0.10;0.10;;;13.00;99.90;;;;;;5087674;28;20324;-92
2023/07/04 05:56:18;;;;;;;0.10;0.10;;;12.80;99.90;;;;;;5068088;28;20454;-89
2023/07/04 05:58:46;;;;;;;0.10;0.10;;;12.70;99.90;;;;;;5067406;28;20432;-89
2023/07/04 06:01:33;;;;;;;0.20;0.20;;;12.60;99.90;;;;;;5066799;28;20181;-82
2023/07/04 06:04:00;;;;;;;0.20;0.20;;;12.50;99.90;;;;;;5086364;28;20867;-86
2023/07/04 06:06:32;;;;;;;0.20;0.20;;;12.60;99.90;;;;;;5085786;28;20451;-87
2023/07/04 06:08:59;;;;;;;0.10;0.10;;;12.50;99.90;;;;;;5085109;28;20925;-84
2023/07/04 06:11:29;;;;;;;0.10;0.10;;;12.60;99.90;;;;;;5082409;28;20479;-84
2023/07/04 06:13:55;;;;;;;0.10;0.10;;;12.90;99.90;;;;;;5065967;28;20439;-92
2023/07/04 06:16:22;;;;;;;0.20;0.20;;;12.90;99.90;;;;;;5082809;28;20447;-83
2023/07/04 06:18:47;;;;;;;0.10;0.10;;;13.00;99.90;;;;;;5089903;28;21051;-80
2023/07/04 06:21:21;;;;;;;0.10;0.10;;;13.20;99.90;;;;;;5072296;28;20456;-85
2023/07/04 06:23:47;;;;;;;0.10;0.10;;;13.30;99.90;;;;;;5070928;28;20529;-90
2023/07/04 06:26:13;;;;;;;0.10;0.10;;;13.40;99.90;;;;;;5071298;28;20439;-89
2023/07/04 06:28:40;;;;;;;0.10;0.10;;;13.50;99.90;;;;;;5088326;28;20193;-85
2023/07/04 06:31:07;;;;;;;0.10;0.10;;;13.70;99.90;;;;;;5097707;28;20996;-87
2023/07/04 06:33:34;;;;;;;0.10;0.10;;;13.90;99.90;;;;;;5080478;28;20427;-88
2023/07/04 06:36:00;;;;;;;0.10;0.10;;;13.90;99.90;;;;;;5065078;28;20444;-88
2023/07/04 06:38:26;;;;;;;0.10;0.10;;;13.80;99.90;;;;;;5070270;28;20528;-86
2023/07/04 06:40:56;;;;;;;0.10;0.10;;;13.60;99.90;;;;;;5093124;28;20446;-85
2023/07/04 06:43:23;;;;;;;0.10;0.10;;;13.50;99.90;;;;;;5088012;28;20545;-79
2023/07/04 06:45:49;;;;;;;0.10;0.10;;;13.50;99.90;;;;;;5064428;28;20446;-81
2023/07/04 06:48:14;;;;;;;0.10;0.10;;;13.40;99.90;;;;;;5088136;28;20443;-84
2023/07/04 06:50:40;;;;;;;0.10;0.10;;;13.30;99.90;;;;;;5076550;28;20278;-78
2023/07/04 06:53:06;;;;;;;0.10;0.10;;;13.20;99.90;;;;;;5093265;28;20180;-81
2023/07/04 06:55:31;;;;;;;0.20;0.20;;;13.00;99.90;;;;;;5079714;28;20188;-84
2023/07/04 06:57:57;;;;;;;0.20;0.20;;;12.90;99.90;;;;;;5081209;28;20185;-81
2023/07/04 07:00:22;;;;;;;0.20;0.20;;;12.90;99.90;;;;;;5089129;28;20194;-84
2023/07/04 07:02:50;;;;;;;0.20;0.20;;;13.10;99.90;;;;;;5089830;28;20263;-81
2023/07/04 07:05:15;;;;;;;0.10;0.10;;;13.30;99.90;;;;;;5087699;28;20181;-82
2023/07/04 07:07:41;;;;;;;0.10;0.10;;;13.40;99.90;;;;;;5072246;28;20450;-88
2023/07/04 07:10:07;;;;;;;0.10;0.10;;;13.60;99.90;;;;;;5090441;28;20261;-81
2023/07/04 07:12:33;;;;;;;0.10;0.10;;;13.80;99.90;;;;;;5089251;28;20211;-81
2023/07/04 07:14:58;;;;;;;0.10;0.10;;;14.00;99.90;;;;;;5087938;28;20459;-80
2023/07/04 07:17:24;;;;;;;0.10;0.10;;;14.30;99.90;;;;;;5084719;28;20200;-81
2023/07/04 07:19:49;;;;;;;0.10;0.10;;;14.20;99.90;;;;;;5089261;28;20189;-83
2023/07/04 07:22:16;;;;;;;0.10;0.10;;;14.30;99.90;;;;;;5089919;28;20268;-83
2023/07/04 07:24:41;;;;;;;0.10;0.10;;;14.20;99.90;;;;;;5087022;28;20178;-81
2023/07/04 07:27:07;;;;;;;0.10;0.10;;;14.00;99.90;;;;;;5086717;28;20439;-81
2023/07/04 07:29:33;;;;;;;0.10;0.10;;;13.80;99.90;;;;;;5089866;28;20209;-81
2023/07/04 07:32:04;;;;;;;0.10;0.10;;;13.70;99.90;;;;;;5091740;28;20667;-78
2023/07/04 07:34:29;;;;;;;0.10;0.10;;;13.40;99.90;;;;;;5091512;28;21027;-80
2023/07/04 07:36:55;;;;;;;0.20;0.20;;;13.00;99.90;;;;;;5085718;28;20519;-79
2023/07/04 07:39:20;;;;;;;0.20;0.20;;;12.80;99.90;;;;;;5091140;28;20232;-77
2023/07/04 07:41:47;;;;;;;0.10;0.10;;;12.70;99.90;;;;;;5080647;28;20194;-78
2023/07/04 07:44:14;;;;;;;0.10;0.10;;;12.70;99.90;;;;;;5094090;28;20177;-80
2023/07/04 07:46:40;;;;;;;0.10;0.10;;;12.70;99.90;;;;;;5091237;28;20999;-79
2023/07/04 07:49:05;;;;;;;0.10;0.10;;;12.70;99.90;;;;;;5096515;28;20796;-80
2023/07/04 07:51:32;;;;;;;0.10;0.10;;;12.90;99.90;;;;;;5087312;28;20482;-80
2023/07/04 07:53:59;;;;;;;0.17;0.17;;;12.90;99.90;;;;;;5075469;28;21202;-77
2023/07/04 07:56:29;;;;;;;0.20;0.20;;;13.00;99.90;;;;;;5086586;28;20530;-78
2023/07/04 07:58:54;;;;;;;0.10;0.10;;;13.30;99.90;;;;;;5083498;28;20458;-78
2023/07/04 08:01:22;;;;;;;0.10;0.10;;;13.60;99.90;;;;;;5099879;28;20801;-79
2023/07/04 08:03:48;;;;;;;0.10;0.10;;;13.90;99.90;;;;;;5097824;28;20181;-85
2023/07/04 08:06:24;;;;;;;0.10;0.10;;;14.20;99.90;;;;;;5092622;28;21110;-80
2023/07/04 08:08:50;;;;;;;0.10;0.10;;;14.50;99.90;;;;;;5082653;28;21172;-85
2023/07/04 08:11:17;;;;;;;0.10;0.10;;;14.80;99.90;;;;;;5085486;28;20565;-84
2023/07/04 08:13:44;;;;;;;0.10;0.10;;;14.80;99.90;;;;;;5087322;28;20450;-90
2023/07/04 08:16:10;;;;;;;0.10;0.10;;;15.10;99.90;;;;;;5069789;28;20451;-82
2023/07/04 08:18:35;;;;;;;0.10;0.10;;;15.30;99.90;;;;;;5088802;28;20501;-86
2023/07/04 08:21:03;;;;;;;0.10;0.10;;;15.40;99.90;;;;;;5066174;28;20443;-84
2023/07/04 08:23:30;;;;;;;0.10;0.10;;;15.60;99.90;;;;;;5084067;28;20617;-85
2023/07/04 08:25:56;;;;;;;0.10;0.10;;;15.70;99.90;;;;;;5086978;28;20474;-83
2023/07/04 08:28:22;;;;;;;0.10;0.10;;;15.90;99.90;;;;;;5089070;28;20478;-88
2023/07/04 08:30:49;;;;;;;0.10;0.10;;;16.10;99.90;;;;;;5087136;28;20501;-84
2023/07/04 08:33:17;;;;;;;0.10;0.10;;;16.20;99.90;;;;;;5089495;28;20438;-88
2023/07/04 08:35:56;;;;;;;0.10;0.10;;;16.20;99.90;;;;;;5090483;28;20480;-84
2023/07/04 08:38:22;;;;;;;0.10;0.10;;;16.30;99.90;;;;;;5091292;28;20479;-92
2023/07/04 08:40:48;;;;;;;0.10;0.10;;;16.30;99.90;;;;;;5101305;28;20453;-86
2023/07/04 08:43:15;;;;;;;0.10;0.10;;;16.60;99.90;;;;;;5087287;28;20648;-88
2023/07/04 08:45:41;;;;;;;0.10;0.10;;;16.90;99.90;;;;;;5088958;28;20442;-86
2023/07/04 08:48:07;;;;;;;0.10;0.10;;;17.20;99.90;;;;;;5103439;28;20425;-83
2023/07/04 08:50:38;;;;;;;0.10;0.10;;;17.20;99.90;;;;;;5087830;28;20221;-88
2023/07/04 08:53:19;;;;;;;0.10;0.10;;;17.20;99.90;;;;;;5079611;28;20448;-89
2023/07/04 08:55:51;;;;;;;0.10;0.10;;;16.60;99.90;;;;;;5079882;28;20535;-83
2023/07/04 08:58:21;;;;;;;0.10;0.10;;;16.40;99.90;;;;;;5082252;28;20446;-88
2023/07/04 09:00:46;;;;;;;0.10;0.10;;;16.30;99.90;;;;;;5081872;28;20534;-90
2023/07/04 09:03:33;;;;;;;0.10;0.10;;;16.10;99.90;;;;;;5100254;28;20521;-86
2023/07/04 09:06:35;;;;;;;0.10;0.10;;;16.00;99.90;;;;;;5083840;28;20667;-83
2023/07/04 09:09:28;;;;;;;0.10;0.10;;;15.70;99.90;;;;;;5057014;28;20434;-86
2023/07/04 09:11:54;;;;;;;0.10;0.10;;;15.60;99.90;;;;;;5089480;28;20809;-87
2023/07/04 09:14:36;;;;;;;0.10;0.10;;;15.50;99.90;;;;;;5093856;28;20439;-87
2023/07/04 09:17:09;;;;;;;0.10;0.10;;;15.30;99.90;;;;;;5082287;28;20217;-82
2023/07/04 09:19:43;;;;;;;0.10;0.10;;;15.00;99.90;;;;;;5077097;28;20482;-84
2023/07/04 09:22:08;;;;;;;0.10;0.10;;;14.90;99.90;;;;;;5081199;28;20789;-88
2023/07/04 09:24:34;;;;;;;0.10;0.10;;;15.30;99.90;;;;;;5099440;28;20442;-92
2023/07/04 09:27:01;;;;;;;0.10;0.10;;;15.80;99.90;;;;;;5085377;28;20191;-88
2023/07/04 09:29:26;;;;;;;0.10;0.10;;;15.70;99.90;;;;;;5075776;28;20732;-87
2023/07/04 09:31:58;;;;;;;0.10;0.10;;;16.20;99.90;;;;;;5087334;28;20451;-87
2023/07/04 09:34:49;;;;;;;0.10;0.10;;;16.60;99.90;;;;;;5076595;28;20762;-92
2023/07/04 09:37:18;;;;;;;0.10;0.10;;;16.60;99.90;;;;;;5086853;28;20448;-88
2023/07/04 09:39:54;;;;;;;0.10;0.10;;;16.30;99.90;;;;;;5090395;28;20551;-85
2023/07/04 09:42:38;;;;;;;0.10;0.10;;;15.80;99.90;;;;;;5090171;28;20442;-84
2023/07/04 09:45:09;;;;;;;0.10;0.10;;;15.70;99.90;;;;;;5089361;28;20448;-96
2023/07/04 09:47:36;;;;;;;0.10;0.10;;;16.00;99.90;;;;;;5092406;28;20439;-94
2023/07/04 09:50:13;;;;;;;0.10;0.10;;;16.80;99.90;;;;;;5073734;28;20481;-84
2023/07/04 09:52:39;;;;;;;0.10;0.10;;;17.30;99.90;;;;;;5090956;28;20451;-91
2023/07/04 09:55:25;;;;;;;0.10;0.10;;;17.80;99.90;;;;;;5107557;28;20418;-88
2023/07/04 09:57:51;;;;;;;0.10;0.10;;;17.90;99.90;;;;;;5088427;28;20446;-93
2023/07/04 10:00:23;;;;;;;0.10;0.10;;;17.60;99.90;;;;;;5074777;28;20535;-84
2023/07/04 10:02:52;;;;;;;0.10;0.10;;;17.10;99.90;;;;;;5094270;28;20185;-89
2023/07/04 10:05:32;;;;;;;0.10;0.10;;;16.90;99.90;;;;;;5090125;28;20450;-94
2023/07/04 10:08:05;;;;;;;0.10;0.10;;;16.70;99.90;;;;;;5082848;28;20515;-92
2023/07/04 10:10:34;;;;;;;0.10;0.10;;;16.50;99.90;;;;;;5096496;28;20488;-90
2023/07/04 10:12:59;;;;;;;0.10;0.10;;;16.40;99.90;;;;;;5094618;28;20427;-88
2023/07/04 10:15:36;;;;;;;0.10;0.10;;;16.20;99.90;;;;;;5075861;28;20586;-96
2023/07/04 10:18:03;;;;;;;0.10;0.10;;;16.10;99.90;;;;;;5074767;28;20215;-84
2023/07/04 10:20:35;;;;;;;0.10;0.10;;;16.30;99.90;;;;;;5070192;28;20442;-91
2023/07/04 10:23:01;;;;;;;0.10;0.10;;;16.50;99.90;;;;;;5092165;28;20430;-85
2023/07/04 10:25:29;;;;;;;0.10;0.10;;;16.70;99.90;;;;;;5072003;28;20541;-84
2023/07/04 10:28:10;;;;;;;0.10;0.10;;;16.60;99.90;;;;;;5083254;28;20213;-88
2023/07/04 10:30:38;;;;;;;0.10;0.10;;;17.50;99.90;;;;;;5065283;28;20520;-88
2023/07/04 10:33:12;;;;;;;0.10;0.10;;;18.40;99.90;;;;;;5087887;28;20441;-83
2023/07/04 10:35:40;;;;;;;0.10;0.10;;;18.70;99.90;;;;;;5069335;28;20551;-84
2023/07/04 10:38:28;;;;;;;0.10;0.10;;;19.10;99.90;;;;;;5088422;28;20521;-88
2023/07/04 10:40:55;;;;;;;0.10;0.10;;;19.10;99.90;;;;;;5087385;28;20446;-93
2023/07/04 10:43:30;;;;;;;0.10;0.10;;;19.50;99.90;;;;;;5092447;28;20415;-96
2023/07/04 10:45:58;;;;;;;0.10;0.10;;;19.00;99.90;;;;;;5091260;28;20432;-87
2023/07/04 10:48:28;;;;;;;0.10;0.10;;;18.70;99.90;;;;;;5078315;28;20427;-83
2023/07/04 10:50:59;;;;;;;0.10;0.10;;;18.00;99.90;;;;;;5090164;28;20563;-88
2023/07/04 10:53:25;;;;;;;0.10;0.10;;;17.40;99.90;;;;;;5089516;28;20482;-89
2023/07/04 10:56:06;;;;;;;0.10;0.10;;;17.50;99.90;;;;;;5087716;28;20476;-85
2023/07/04 10:58:38;;;;;;;0.10;0.10;;;18.40;99.90;;;;;;5069163;28;20181;-91
2023/07/04 11:01:15;;;;;;;0.10;0.10;;;18.80;99.90;;;;;;5086099;28;20466;-89
2023/07/04 11:03:59;;;;;;;0.10;0.10;;;18.90;99.90;;;;;;5084921;28;20443;-83
2023/07/04 11:06:37;;;;;;;0.10;0.10;;;19.10;99.90;;;;;;5084685;28;20521;-92
2023/07/04 11:09:06;;;;;;;0.10;0.00;;;19.90;99.90;;;;;;5081315;28;20492;-90
2023/07/04 11:11:32;;;;;;;0.10;0.00;;;20.60;99.90;;;;;;5083800;28;20479;-89
2023/07/04 11:14:10;;;;;;;0.10;0.00;;;20.80;99.90;;;;;;5084664;28;20443;-85
2023/07/04 11:16:40;;;;;;;0.10;0.00;;;21.10;99.90;;;;;;5090302;28;20439;-94
2023/07/04 11:19:17;;;;;;;0.10;0.00;;;21.40;99.90;;;;;;5084453;28;20522;-91
2023/07/04 11:22:02;;;;;;;0.10;0.00;;;21.20;99.90;;;;;;5084678;28;20450;-91
2023/07/04 11:24:46;;;;;;;0.10;0.00;;;21.30;99.90;;;;;;5091882;28;20431;-90
2023/07/04 11:27:29;;;;;;;0.10;0.00;;;21.40;99.90;;;;;;5090505;28;20430;-88
2023/07/04 11:29:57;;;;;;;0.10;0.00;;;21.30;99.90;;;;;;5088719;28;20470;-93
2023/07/04 11:32:37;;;;;;;0.10;0.00;;;21.70;99.90;;;;;;5089866;28;20942;-95
2023/07/04 11:35:06;;;;;;;0.10;0.00;;;20.80;99.90;;;;;;5085771;28;20953;-85
2023/07/04 11:37:40;;;;;;;0.10;0.00;;;20.50;99.90;;;;;;5093133;28;20435;-91
2023/07/04 11:40:42;;;;;;;0.10;0.00;;;19.40;99.90;;;;;;5081669;28;20833;-90
2023/07/04 11:43:22;;;;;;;0.10;0.10;;;18.70;99.90;;;;;;5075467;28;20469;-90
2023/07/04 11:45:48;;;;;;;0.10;0.10;;;18.40;99.90;;;;;;5087988;28;20569;-89
2023/07/04 11:48:18;;;;;;;0.10;0.10;;;18.30;99.90;;;;;;5089030;28;20435;-87
2023/07/04 11:50:53;;;;;;;0.10;0.10;;;18.20;99.90;;;;;;5081012;28;20483;-88
2023/07/04 11:53:48;;;;;;;0.10;0.10;;;18.10;99.90;;;;;;5098092;28;20495;-92
2023/07/04 11:56:19;;;;;;;0.10;0.10;;;18.00;99.90;;;;;;5085680;28;20494;-90
2023/07/04 11:58:45;;;;;;;0.10;0.10;;;18.30;99.90;;;;;;5071433;28;20538;-88
2023/07/04 12:01:14;;;;;;;0.10;0.10;;;18.50;99.90;;;;;;5087968;28;20443;-91
2023/07/04 12:03:58;;;;;;;0.10;0.10;;;18.90;99.90;;;;;;5060164;28;20466;-95
2023/07/04 12:07:03;;;;;;;0.10;0.10;;;19.40;99.90;;;;;;5087289;28;20611;-89
2023/07/04 12:09:40;;;;;;;0.10;0.10;;;20.00;99.90;;;;;;5035052;28;20513;-84
2023/07/04 12:12:08;;;;;;;0.10;0.10;;;20.90;99.90;;;;;;5098065;28;20842;-95
2023/07/04 12:14:38;;;;;;;0.10;0.00;;;20.80;99.90;;;;;;5093386;28;20443;-96
2023/07/04 12:17:03;;;;;;;0.10;0.00;;;20.10;99.90;;;;;;5088159;28;20516;-88
2023/07/04 12:19:29;;;;;;;0.10;0.00;;;19.30;99.90;;;;;;5084319;28;21001;-95
2023/07/04 12:21:58;;;;;;;0.10;0.10;;;18.50;99.90;;;;;;5087387;28;20195;-86
2023/07/04 12:24:24;;;;;;;0.10;0.10;;;18.10;99.90;;;;;;5082815;28;20178;-87
2023/07/04 12:26:55;;;;;;;0.10;0.10;;;18.00;99.90;;;;;;5090633;28;20440;-96
2023/07/04 12:29:21;;;;;;;0.10;0.10;;;18.00;99.90;;;;;;5099893;28;20429;-91
2023/07/04 12:31:58;;;;;;;0.10;0.10;;;17.80;99.90;;;;;;5096611;28;20460;-91
2023/07/04 12:34:28;;;;;;;0.10;0.10;;;17.70;99.90;;;;;;5086061;28;20181;-86
2023/07/04 12:36:54;;;;;;;0.10;0.10;;;18.20;99.90;;;;;;5088961;28;20438;-96
2023/07/04 12:39:20;;;;;;;0.10;0.10;;;18.30;99.90;;;;;;5084624;28;20692;-85
2023/07/04 12:41:46;;;;;;;0.10;0.10;;;18.20;99.90;;;;;;5086636;28;20180;-94
2023/07/04 12:44:14;;;;;;;0.10;0.10;;;18.00;99.90;;;;;;5081809;28;20431;-91
2023/07/04 12:46:45;;;;;;;0.10;0.10;;;18.00;99.90;;;;;;5078156;28;20208;-93
2023/07/04 12:49:11;;;;;;;0.10;0.10;;;18.00;99.90;;;;;;5090036;28;20579;-92
2023/07/04 12:51:41;;;;;;;0.10;0.10;;;18.00;99.90;;;;;;5083748;28;20571;-87
2023/07/04 12:54:09;;;;;;;0.10;0.10;;;18.20;99.90;;;;;;5081178;28;20534;-96
2023/07/04 12:56:45;;;;;;;0.10;0.10;;;19.70;99.90;;;;;;5089725;28;20431;-91